sensor_id;sensor_type;location;lat;lon;timestamp;temperature;humidity
4354;DHT22;11018;51.258;6.806;2023-04-15T00:00:03;7.90;42.70
4354;DHT22;11018;51.258;6.806;2023-04-15T00:02:29;7.70;44.70
4354;DHT22;11018;51.258;6.806;2023-04-15T00:04:55;7.50;46.50
4354;DHT22;11018;51.258;6.806;2023-04-15T00:07:20;7.60;48.10
4354;DHT22;11018;51.258;6.806;2023-04-15T00:09:46;7.60;48.30
4354;DHT22;11018;51.258;6.806;2023-04-15T00:12:12;7.50;47.00
4354;DHT22;11018;51.258;6.806;2023-04-15T00:14:37;7.40;48.20
4354;DHT22;11018;51.258;6.806;2023-04-15T00:17:03;7.70;47.70
4354;DHT22;11018;51.258;6.806;2023-04-15T00:19:30;7.50;47.80
4354;DHT22;11018;51.258;6.806;2023-04-15T00:21:56;7.60;47.60
4354;DHT22;11018;51.258;6.806;2023-04-15T00:24:22;7.60;47.70
4354;DHT22;11018;51.258;6.806;2023-04-15T00:26:47;7.40;47.90
4354;DHT22;11018;51.258;6.806;2023-04-15T00:29:13;7.50;47.50
4354;DHT22;11018;51.258;6.806;2023-04-15T00:31:39;7.40;47.50
4354;DHT22;11018;51.258;6.806;2023-04-15T00:34:06;7.40;48.50
4354;DHT22;11018;51.258;6.806;2023-04-15T00:36:32;7.60;47.80
4354;DHT22;11018;51.258;6.806;2023-04-15T00:38:59;7.60;46.90
4354;DHT22;11018;51.258;6.806;2023-04-15T00:41:25;7.60;46.60
4354;DHT22;11018;51.258;6.806;2023-04-15T00:43:50;7.60;47.10
4354;DHT22;11018;51.258;6.806;2023-04-15T00:46:17;7.70;46.20
4354;DHT22;11018;51.258;6.806;2023-04-15T00:48:46;7.70;45.70
4354;DHT22;11018;51.258;6.806;2023-04-15T00:51:12;7.70;45.10
4354;DHT22;11018;51.258;6.806;2023-04-15T00:53:38;7.60;47.80
4354;DHT22;11018;51.258;6.806;2023-04-15T00:56:04;7.50;48.10
4354;DHT22;11018;51.258;6.806;2023-04-15T00:58:30;7.40;49.10
4354;DHT22;11018;51.258;6.806;2023-04-15T01:00:56;7.40;49.70
4354;DHT22;11018;51.258;6.806;2023-04-15T01:03:21;7.30;48.30
4354;DHT22;11018;51.258;6.806;2023-04-15T01:05:47;7.10;51.00
4354;DHT22;11018;51.258;6.806;2023-04-15T01:08:13;6.90;51.80
4354;DHT22;11018;51.258;6.806;2023-04-15T01:10:39;7.00;51.50
4354;DHT22;11018;51.258;6.806;2023-04-15T01:13:05;7.00;50.20
4354;DHT22;11018;51.258;6.806;2023-04-15T01:15:31;7.10;49.80
4354;DHT22;11018;51.258;6.806;2023-04-15T01:18:01;7.10;49.40
4354;DHT22;11018;51.258;6.806;2023-04-15T01:20:28;6.90;51.00
4354;DHT22;11018;51.258;6.806;2023-04-15T01:22:54;6.70;52.60
4354;DHT22;11018;51.258;6.806;2023-04-15T01:25:32;6.60;54.20
4354;DHT22;11018;51.258;6.806;2023-04-15T01:27:58;6.50;55.60
4354;DHT22;11018;51.258;6.806;2023-04-15T01:30:24;6.60;55.40
4354;DHT22;11018;51.258;6.806;2023-04-15T01:32:51;6.90;52.10
4354;DHT22;11018;51.258;6.806;2023-04-15T01:35:17;7.10;49.70
4354;DHT22;11018;51.258;6.806;2023-04-15T01:37:42;7.30;47.90
4354;DHT22;11018;51.258;6.806;2023-04-15T01:40:08;7.40;48.00
4354;DHT22;11018;51.258;6.806;2023-04-15T01:42:35;7.30;46.60
4354;DHT22;11018;51.258;6.806;2023-04-15T01:45:02;7.00;50.30
4354;DHT22;11018;51.258;6.806;2023-04-15T01:47:28;6.80;53.20
4354;DHT22;11018;51.258;6.806;2023-04-15T01:49:53;6.60;54.40
4354;DHT22;11018;51.258;6.806;2023-04-15T01:52:19;6.50;56.10
4354;DHT22;11018;51.258;6.806;2023-04-15T01:54:45;6.40;59.20
4354;DHT22;11018;51.258;6.806;2023-04-15T01:57:11;6.80;55.70
4354;DHT22;11018;51.258;6.806;2023-04-15T01:59:36;7.10;52.30
4354;DHT22;11018;51.258;6.806;2023-04-15T02:02:03;7.20;50.80
4354;DHT22;11018;51.258;6.806;2023-04-15T02:04:28;7.00;51.40
4354;DHT22;11018;51.258;6.806;2023-04-15T02:06:54;7.00;52.60
4354;DHT22;11018;51.258;6.806;2023-04-15T02:09:20;6.90;53.30
4354;DHT22;11018;51.258;6.806;2023-04-15T02:11:45;6.90;53.10
4354;DHT22;11018;51.258;6.806;2023-04-15T02:14:11;7.00;52.10
4354;DHT22;11018;51.258;6.806;2023-04-15T02:16:37;6.90;51.70
4354;DHT22;11018;51.258;6.806;2023-04-15T02:19:02;6.80;52.30
4354;DHT22;11018;51.258;6.806;2023-04-15T02:21:29;6.60;53.70
4354;DHT22;11018;51.258;6.806;2023-04-15T02:23:54;6.40;55.50
4354;DHT22;11018;51.258;6.806;2023-04-15T02:26:20;6.10;58.30
4354;DHT22;11018;51.258;6.806;2023-04-15T02:28:47;6.00;59.80
4354;DHT22;11018;51.258;6.806;2023-04-15T02:31:13;6.00;61.50
4354;DHT22;11018;51.258;6.806;2023-04-15T02:33:38;6.00;61.80
4354;DHT22;11018;51.258;6.806;2023-04-15T02:36:04;6.30;58.90
4354;DHT22;11018;51.258;6.806;2023-04-15T02:38:30;6.50;57.00
4354;DHT22;11018;51.258;6.806;2023-04-15T02:40:56;6.40;55.90
4354;DHT22;11018;51.258;6.806;2023-04-15T02:43:22;6.20;58.60
4354;DHT22;11018;51.258;6.806;2023-04-15T02:45:48;6.40;56.90
4354;DHT22;11018;51.258;6.806;2023-04-15T02:48:13;6.40;57.90
4354;DHT22;11018;51.258;6.806;2023-04-15T02:50:41;6.50;57.70
4354;DHT22;11018;51.258;6.806;2023-04-15T02:53:06;6.40;57.30
4354;DHT22;11018;51.258;6.806;2023-04-15T02:55:32;6.10;59.80
4354;DHT22;11018;51.258;6.806;2023-04-15T02:57:57;5.80;62.90
4354;DHT22;11018;51.258;6.806;2023-04-15T03:00:25;5.80;65.20
4354;DHT22;11018;51.258;6.806;2023-04-15T03:02:51;5.80;67.40
4354;DHT22;11018;51.258;6.806;2023-04-15T03:05:21;6.00;63.40
4354;DHT22;11018;51.258;6.806;2023-04-15T03:07:49;5.80;64.40
4354;DHT22;11018;51.258;6.806;2023-04-15T03:10:14;5.60;66.40
4354;DHT22;11018;51.258;6.806;2023-04-15T03:12:40;5.70;66.90
4354;DHT22;11018;51.258;6.806;2023-04-15T03:15:06;5.60;68.20
4354;DHT22;11018;51.258;6.806;2023-04-15T03:17:32;5.60;68.90
4354;DHT22;11018;51.258;6.806;2023-04-15T03:19:58;5.80;67.30
4354;DHT22;11018;51.258;6.806;2023-04-15T03:22:23;6.20;62.90
4354;DHT22;11018;51.258;6.806;2023-04-15T03:24:49;6.00;61.90
4354;DHT22;11018;51.258;6.806;2023-04-15T03:27:15;5.70;65.60
4354;DHT22;11018;51.258;6.806;2023-04-15T03:29:40;5.60;68.50
4354;DHT22;11018;51.258;6.806;2023-04-15T03:32:08;6.10;65.40
4354;DHT22;11018;51.258;6.806;2023-04-15T03:34:33;6.30;61.50
4354;DHT22;11018;51.258;6.806;2023-04-15T03:36:59;6.00;63.40
4354;DHT22;11018;51.258;6.806;2023-04-15T03:39:24;6.10;65.20
4354;DHT22;11018;51.258;6.806;2023-04-15T03:41:50;6.10;64.10
4354;DHT22;11018;51.258;6.806;2023-04-15T03:44:15;6.20;63.50
4354;DHT22;11018;51.258;6.806;2023-04-15T03:46:41;6.20;62.90
4354;DHT22;11018;51.258;6.806;2023-04-15T03:49:07;5.90;63.90
4354;DHT22;11018;51.258;6.806;2023-04-15T03:51:32;5.80;66.50
4354;DHT22;11018;51.258;6.806;2023-04-15T03:53:58;6.00;66.80
4354;DHT22;11018;51.258;6.806;2023-04-15T03:56:23;6.30;63.90
4354;DHT22;11018;51.258;6.806;2023-04-15T03:58:49;6.40;62.10
4354;DHT22;11018;51.258;6.806;2023-04-15T04:01:15;6.10;63.70
4354;DHT22;11018;51.258;6.806;2023-04-15T04:03:41;6.00;64.60
4354;DHT22;11018;51.258;6.806;2023-04-15T04:06:06;6.00;66.10
4354;DHT22;11018;51.258;6.806;2023-04-15T04:08:32;6.30;63.30
4354;DHT22;11018;51.258;6.806;2023-04-15T04:10:58;6.20;63.40
4354;DHT22;11018;51.258;6.806;2023-04-15T04:13:23;6.10;64.30
4354;DHT22;11018;51.258;6.806;2023-04-15T04:15:49;5.80;65.90
4354;DHT22;11018;51.258;6.806;2023-04-15T04:18:15;5.90;67.70
4354;DHT22;11018;51.258;6.806;2023-04-15T04:20:40;6.10;65.40
4354;DHT22;11018;51.258;6.806;2023-04-15T04:23:06;6.00;64.10
4354;DHT22;11018;51.258;6.806;2023-04-15T04:25:31;6.00;66.60
4354;DHT22;11018;51.258;6.806;2023-04-15T04:27:58;6.00;62.80
4354;DHT22;11018;51.258;6.806;2023-04-15T04:30:23;5.90;65.60
4354;DHT22;11018;51.258;6.806;2023-04-15T04:32:49;5.80;66.50
4354;DHT22;11018;51.258;6.806;2023-04-15T04:35:15;5.90;64.60
4354;DHT22;11018;51.258;6.806;2023-04-15T04:37:41;6.00;63.40
4354;DHT22;11018;51.258;6.806;2023-04-15T04:40:07;6.10;63.30
4354;DHT22;11018;51.258;6.806;2023-04-15T04:42:34;6.30;61.80
4354;DHT22;11018;51.258;6.806;2023-04-15T04:44:59;6.30;60.40
4354;DHT22;11018;51.258;6.806;2023-04-15T04:47:25;6.00;61.80
4354;DHT22;11018;51.258;6.806;2023-04-15T04:49:50;5.70;65.90
4354;DHT22;11018;51.258;6.806;2023-04-15T04:52:16;5.80;67.50
4354;DHT22;11018;51.258;6.806;2023-04-15T04:54:41;6.00;63.90
4354;DHT22;11018;51.258;6.806;2023-04-15T04:57:07;5.90;64.50
4354;DHT22;11018;51.258;6.806;2023-04-15T04:59:32;5.70;68.30
4354;DHT22;11018;51.258;6.806;2023-04-15T05:01:58;5.70;67.80
4354;DHT22;11018;51.258;6.806;2023-04-15T05:04:24;5.70;69.90
4354;DHT22;11018;51.258;6.806;2023-04-15T05:06:50;5.80;66.90
4354;DHT22;11018;51.258;6.806;2023-04-15T05:09:16;5.60;69.30
4354;DHT22;11018;51.258;6.806;2023-04-15T05:11:41;6.00;67.00
4354;DHT22;11018;51.258;6.806;2023-04-15T05:14:07;6.10;63.80
4354;DHT22;11018;51.258;6.806;2023-04-15T05:16:32;6.30;61.60
4354;DHT22;11018;51.258;6.806;2023-04-15T05:18:58;6.30;60.90
4354;DHT22;11018;51.258;6.806;2023-04-15T05:21:23;6.30;60.40
4354;DHT22;11018;51.258;6.806;2023-04-15T05:23:50;6.30;61.20
4354;DHT22;11018;51.258;6.806;2023-04-15T05:26:15;6.20;62.80
4354;DHT22;11018;51.258;6.806;2023-04-15T05:28:41;6.00;64.70
4354;DHT22;11018;51.258;6.806;2023-04-15T05:31:07;5.90;68.20
4354;DHT22;11018;51.258;6.806;2023-04-15T05:33:33;5.80;69.40
4354;DHT22;11018;51.258;6.806;2023-04-15T05:35:58;5.80;71.10
4354;DHT22;11018;51.258;6.806;2023-04-15T05:38:24;5.90;70.80
4354;DHT22;11018;51.258;6.806;2023-04-15T05:40:50;6.10;70.20
4354;DHT22;11018;51.258;6.806;2023-04-15T05:43:16;6.30;66.60
4354;DHT22;11018;51.258;6.806;2023-04-15T05:45:41;6.40;65.90
4354;DHT22;11018;51.258;6.806;2023-04-15T05:48:07;6.60;65.20
4354;DHT22;11018;51.258;6.806;2023-04-15T05:50:32;7.10;59.90
4354;DHT22;11018;51.258;6.806;2023-04-15T05:52:58;7.40;56.50
4354;DHT22;11018;51.258;6.806;2023-04-15T05:55:24;7.70;55.00
4354;DHT22;11018;51.258;6.806;2023-04-15T05:57:50;7.80;53.70
4354;DHT22;11018;51.258;6.806;2023-04-15T06:00:15;7.90;53.00
4354;DHT22;11018;51.258;6.806;2023-04-15T06:02:41;8.00;52.60
4354;DHT22;11018;51.258;6.806;2023-04-15T06:05:07;8.10;52.70
4354;DHT22;11018;51.258;6.806;2023-04-15T06:07:36;8.10;52.10
4354;DHT22;11018;51.258;6.806;2023-04-15T06:10:03;8.20;52.40
4354;DHT22;11018;51.258;6.806;2023-04-15T06:12:29;8.30;52.70
4354;DHT22;11018;51.258;6.806;2023-04-15T06:14:55;8.40;52.80
4354;DHT22;11018;51.258;6.806;2023-04-15T06:17:20;8.50;52.70
4354;DHT22;11018;51.258;6.806;2023-04-15T06:19:46;8.60;52.80
4354;DHT22;11018;51.258;6.806;2023-04-15T06:22:12;8.70;52.20
4354;DHT22;11018;51.258;6.806;2023-04-15T06:24:37;8.90;51.90
4354;DHT22;11018;51.258;6.806;2023-04-15T06:27:03;9.00;51.40
4354;DHT22;11018;51.258;6.806;2023-04-15T06:29:28;9.10;51.30
4354;DHT22;11018;51.258;6.806;2023-04-15T06:31:54;9.30;50.30
4354;DHT22;11018;51.258;6.806;2023-04-15T06:34:20;9.40;49.60
4354;DHT22;11018;51.258;6.806;2023-04-15T06:36:46;9.50;48.90
4354;DHT22;11018;51.258;6.806;2023-04-15T06:39:12;9.60;48.20
4354;DHT22;11018;51.258;6.806;2023-04-15T06:41:38;9.70;47.40
4354;DHT22;11018;51.258;6.806;2023-04-15T06:44:04;9.80;47.00
4354;DHT22;11018;51.258;6.806;2023-04-15T06:46:30;9.90;46.80
4354;DHT22;11018;51.258;6.806;2023-04-15T06:48:56;10.10;46.60
4354;DHT22;11018;51.258;6.806;2023-04-15T06:51:21;10.30;44.90
4354;DHT22;11018;51.258;6.806;2023-04-15T06:53:48;10.50;43.90
4354;DHT22;11018;51.258;6.806;2023-04-15T06:56:14;10.80;43.10
4354;DHT22;11018;51.258;6.806;2023-04-15T06:58:39;10.90;41.40
4354;DHT22;11018;51.258;6.806;2023-04-15T07:01:05;11.10;41.10
4354;DHT22;11018;51.258;6.806;2023-04-15T07:03:31;11.30;40.40
4354;DHT22;11018;51.258;6.806;2023-04-15T07:05:56;11.50;38.80
4354;DHT22;11018;51.258;6.806;2023-04-15T07:08:23;11.70;37.20
4354;DHT22;11018;51.258;6.806;2023-04-15T07:10:48;11.80;36.70
4354;DHT22;11018;51.258;6.806;2023-04-15T07:13:14;11.90;34.90
4354;DHT22;11018;51.258;6.806;2023-04-15T07:15:40;11.90;34.30
4354;DHT22;11018;51.258;6.806;2023-04-15T07:18:05;11.70;33.60
4354;DHT22;11018;51.258;6.806;2023-04-15T07:20:31;11.80;35.30
4354;DHT22;11018;51.258;6.806;2023-04-15T07:22:56;11.90;34.80
4354;DHT22;11018;51.258;6.806;2023-04-15T07:25:22;12.10;34.20
4354;DHT22;11018;51.258;6.806;2023-04-15T07:27:48;12.20;32.90
4354;DHT22;11018;51.258;6.806;2023-04-15T07:30:13;12.30;32.00
4354;DHT22;11018;51.258;6.806;2023-04-15T07:32:39;12.10;32.30
4354;DHT22;11018;51.258;6.806;2023-04-15T07:35:06;12.10;32.50
4354;DHT22;11018;51.258;6.806;2023-04-15T07:37:32;12.20;31.30
4354;DHT22;11018;51.258;6.806;2023-04-15T07:39:57;12.00;32.50
4354;DHT22;11018;51.258;6.806;2023-04-15T07:42:23;12.10;31.90
4354;DHT22;11018;51.258;6.806;2023-04-15T07:44:49;12.10;31.00
4354;DHT22;11018;51.258;6.806;2023-04-15T07:47:14;12.30;30.60
4354;DHT22;11018;51.258;6.806;2023-04-15T07:49:41;12.40;30.10
4354;DHT22;11018;51.258;6.806;2023-04-15T07:52:07;12.40;28.70
4354;DHT22;11018;51.258;6.806;2023-04-15T07:54:33;12.00;28.30
4354;DHT22;11018;51.258;6.806;2023-04-15T07:56:58;11.70;30.10
4354;DHT22;11018;51.258;6.806;2023-04-15T07:59:24;11.80;30.30
4354;DHT22;11018;51.258;6.806;2023-04-15T08:01:51;11.80;29.20
4354;DHT22;11018;51.258;6.806;2023-04-15T08:04:17;11.80;29.00
4354;DHT22;11018;51.258;6.806;2023-04-15T08:06:43;11.90;29.10
4354;DHT22;11018;51.258;6.806;2023-04-15T08:09:08;12.20;28.70
4354;DHT22;11018;51.258;6.806;2023-04-15T08:11:34;12.40;27.60
4354;DHT22;11018;51.258;6.806;2023-04-15T08:14:00;12.60;28.30
4354;DHT22;11018;51.258;6.806;2023-04-15T08:16:26;12.90;26.80
4354;DHT22;11018;51.258;6.806;2023-04-15T08:18:53;13.20;25.90
4354;DHT22;11018;51.258;6.806;2023-04-15T08:21:19;13.00;23.70
4354;DHT22;11018;51.258;6.806;2023-04-15T08:23:47;12.90;24.40
4354;DHT22;11018;51.258;6.806;2023-04-15T08:26:13;12.50;25.30
4354;DHT22;11018;51.258;6.806;2023-04-15T08:28:40;12.50;26.00
4354;DHT22;11018;51.258;6.806;2023-04-15T08:31:06;12.60;26.10
4354;DHT22;11018;51.258;6.806;2023-04-15T08:33:32;12.90;25.70
4354;DHT22;11018;51.258;6.806;2023-04-15T08:35:58;13.20;24.50
4354;DHT22;11018;51.258;6.806;2023-04-15T08:38:23;12.90;23.90
4354;DHT22;11018;51.258;6.806;2023-04-15T08:40:49;12.50;25.20
4354;DHT22;11018;51.258;6.806;2023-04-15T08:43:26;12.40;25.70
4354;DHT22;11018;51.258;6.806;2023-04-15T08:45:53;12.40;26.60
4354;DHT22;11018;51.258;6.806;2023-04-15T08:48:20;12.30;26.00
4354;DHT22;11018;51.258;6.806;2023-04-15T08:50:47;12.40;26.90
4354;DHT22;11018;51.258;6.806;2023-04-15T08:53:14;12.70;26.00
4354;DHT22;11018;51.258;6.806;2023-04-15T08:55:44;13.00;25.00
4354;DHT22;11018;51.258;6.806;2023-04-15T08:58:11;13.20;24.40
4354;DHT22;11018;51.258;6.806;2023-04-15T09:00:39;13.40;23.50
4354;DHT22;11018;51.258;6.806;2023-04-15T09:03:05;13.50;23.00
4354;DHT22;11018;51.258;6.806;2023-04-15T09:05:32;13.40;23.00
4354;DHT22;11018;51.258;6.806;2023-04-15T09:07:59;13.40;22.70
4354;DHT22;11018;51.258;6.806;2023-04-15T09:10:25;13.30;23.80
4354;DHT22;11018;51.258;6.806;2023-04-15T09:12:50;13.20;23.50
4354;DHT22;11018;51.258;6.806;2023-04-15T09:15:16;13.40;23.10
4354;DHT22;11018;51.258;6.806;2023-04-15T09:17:45;13.30;23.20
4354;DHT22;11018;51.258;6.806;2023-04-15T09:20:12;13.50;23.20
4354;DHT22;11018;51.258;6.806;2023-04-15T09:22:40;13.70;21.80
4354;DHT22;11018;51.258;6.806;2023-04-15T09:27:48;13.80;21.00
4354;DHT22;11018;51.258;6.806;2023-04-15T09:30:14;13.20;21.50
4354;DHT22;11018;51.258;6.806;2023-04-15T09:32:57;13.10;21.20
4354;DHT22;11018;51.258;6.806;2023-04-15T09:35:24;13.10;21.50
4354;DHT22;11018;51.258;6.806;2023-04-15T09:37:50;12.90;21.70
4354;DHT22;11018;51.258;6.806;2023-04-15T09:40:39;13.00;22.20
4354;DHT22;11018;51.258;6.806;2023-04-15T09:43:06;13.10;22.60
4354;DHT22;11018;51.258;6.806;2023-04-15T09:45:33;13.40;22.10
4354;DHT22;11018;51.258;6.806;2023-04-15T09:48:23;13.70;21.10
4354;DHT22;11018;51.258;6.806;2023-04-15T09:50:51;13.60;20.60
4354;DHT22;11018;51.258;6.806;2023-04-15T09:53:23;13.50;21.70
4354;DHT22;11018;51.258;6.806;2023-04-15T09:55:55;13.40;22.20
4354;DHT22;11018;51.258;6.806;2023-04-15T09:58:23;13.50;21.70
4354;DHT22;11018;51.258;6.806;2023-04-15T10:00:50;13.30;21.50
4354;DHT22;11018;51.258;6.806;2023-04-15T10:03:23;13.00;22.50
4354;DHT22;11018;51.258;6.806;2023-04-15T10:05:51;13.10;22.70
4354;DHT22;11018;51.258;6.806;2023-04-15T10:08:19;13.30;22.90
4354;DHT22;11018;51.258;6.806;2023-04-15T10:10:45;13.70;21.70
4354;DHT22;11018;51.258;6.806;2023-04-15T10:13:20;13.60;22.30
4354;DHT22;11018;51.258;6.806;2023-04-15T10:16:11;13.80;22.20
4354;DHT22;11018;51.258;6.806;2023-04-15T10:18:46;13.70;21.30
4354;DHT22;11018;51.258;6.806;2023-04-15T10:21:12;13.60;22.10
4354;DHT22;11018;51.258;6.806;2023-04-15T10:23:40;13.90;22.10
4354;DHT22;11018;51.258;6.806;2023-04-15T10:26:05;14.20;21.00
4354;DHT22;11018;51.258;6.806;2023-04-15T10:28:31;14.30;21.40
4354;DHT22;11018;51.258;6.806;2023-04-15T10:30:57;14.20;21.10
4354;DHT22;11018;51.258;6.806;2023-04-15T10:33:24;14.20;22.00
4354;DHT22;11018;51.258;6.806;2023-04-15T10:35:50;13.90;22.30
4354;DHT22;11018;51.258;6.806;2023-04-15T10:38:33;13.90;22.70
4354;DHT22;11018;51.258;6.806;2023-04-15T10:41:25;14.00;22.40
4354;DHT22;11018;51.258;6.806;2023-04-15T10:43:54;13.90;22.80
4354;DHT22;11018;51.258;6.806;2023-04-15T10:46:23;13.70;23.40
4354;DHT22;11018;51.258;6.806;2023-04-15T10:48:51;13.80;23.80
4354;DHT22;11018;51.258;6.806;2023-04-15T10:51:30;13.70;23.20
4354;DHT22;11018;51.258;6.806;2023-04-15T10:54:00;13.50;23.90
4354;DHT22;11018;51.258;6.806;2023-04-15T10:56:27;13.40;24.30
4354;DHT22;11018;51.258;6.806;2023-04-15T10:58:54;13.40;25.70
4354;DHT22;11018;51.258;6.806;2023-04-15T11:01:20;13.50;25.90
4354;DHT22;11018;51.258;6.806;2023-04-15T11:03:47;13.60;25.80
4354;DHT22;11018;51.258;6.806;2023-04-15T11:06:13;13.70;25.90
4354;DHT22;11018;51.258;6.806;2023-04-15T11:08:58;13.80;24.80
4354;DHT22;11018;51.258;6.806;2023-04-15T11:12:08;13.50;25.00
4354;DHT22;11018;51.258;6.806;2023-04-15T11:14:39;13.50;25.50
4354;DHT22;11018;51.258;6.806;2023-04-15T11:17:05;13.90;24.90
4354;DHT22;11018;51.258;6.806;2023-04-15T11:19:38;13.90;24.70
4354;DHT22;11018;51.258;6.806;2023-04-15T11:22:10;14.00;24.40
4354;DHT22;11018;51.258;6.806;2023-04-15T11:24:36;14.00;24.70
4354;DHT22;11018;51.258;6.806;2023-04-15T11:27:22;14.10;24.80
4354;DHT22;11018;51.258;6.806;2023-04-15T11:29:48;13.80;25.20
4354;DHT22;11018;51.258;6.806;2023-04-15T11:32:13;13.60;25.90
4354;DHT22;11018;51.258;6.806;2023-04-15T11:34:39;13.50;27.00
4354;DHT22;11018;51.258;6.806;2023-04-15T11:37:05;13.40;27.10
4354;DHT22;11018;51.258;6.806;2023-04-15T11:39:31;13.20;28.30
4354;DHT22;11018;51.258;6.806;2023-04-15T11:41:56;13.00;29.30
4354;DHT22;11018;51.258;6.806;2023-04-15T11:44:22;13.00;29.90
4354;DHT22;11018;51.258;6.806;2023-04-15T11:46:47;13.30;29.40
4354;DHT22;11018;51.258;6.806;2023-04-15T11:49:29;13.20;28.90
4354;DHT22;11018;51.258;6.806;2023-04-15T11:51:55;13.20;28.20
4354;DHT22;11018;51.258;6.806;2023-04-15T11:54:21;13.20;28.40
4354;DHT22;11018;51.258;6.806;2023-04-15T11:56:50;13.30;27.50
4354;DHT22;11018;51.258;6.806;2023-04-15T11:59:17;13.30;28.70
4354;DHT22;11018;51.258;6.806;2023-04-15T12:01:42;13.00;28.90
4354;DHT22;11018;51.258;6.806;2023-04-15T12:04:12;13.00;29.00
4354;DHT22;11018;51.258;6.806;2023-04-15T12:06:37;12.60;30.80
4354;DHT22;11018;51.258;6.806;2023-04-15T12:11:49;12.60;31.50
4354;DHT22;11018;51.258;6.806;2023-04-15T12:17:18;12.50;31.80
4354;DHT22;11018;51.258;6.806;2023-04-15T12:19:41;12.50;31.50
4354;DHT22;11018;51.258;6.806;2023-04-15T12:22:12;12.70;30.30
4354;DHT22;11018;51.258;6.806;2023-04-15T12:24:38;13.00;29.10
4354;DHT22;11018;51.258;6.806;2023-04-15T12:27:06;12.90;28.80
4354;DHT22;11018;51.258;6.806;2023-04-15T12:29:33;13.00;29.20
4354;DHT22;11018;51.258;6.806;2023-04-15T12:32:08;12.90;28.90
4354;DHT22;11018;51.258;6.806;2023-04-15T12:34:34;12.80;29.20
4354;DHT22;11018;51.258;6.806;2023-04-15T12:37:02;12.80;28.70
4354;DHT22;11018;51.258;6.806;2023-04-15T12:39:30;13.00;28.10
4354;DHT22;11018;51.258;6.806;2023-04-15T12:41:57;13.00;28.40
4354;DHT22;11018;51.258;6.806;2023-04-15T12:44:24;13.10;28.30
4354;DHT22;11018;51.258;6.806;2023-04-15T12:46:51;13.00;28.20
4354;DHT22;11018;51.258;6.806;2023-04-15T12:49:22;12.60;30.10
4354;DHT22;11018;51.258;6.806;2023-04-15T12:51:52;12.40;32.30
4354;DHT22;11018;51.258;6.806;2023-04-15T12:54:18;12.20;34.10
4354;DHT22;11018;51.258;6.806;2023-04-15T12:56:45;12.10;35.50
4354;DHT22;11018;51.258;6.806;2023-04-15T12:59:12;12.00;36.20
4354;DHT22;11018;51.258;6.806;2023-04-15T13:01:39;12.00;36.20
4354;DHT22;11018;51.258;6.806;2023-04-15T13:04:05;11.90;36.80
4354;DHT22;11018;51.258;6.806;2023-04-15T13:06:30;11.80;37.10
4354;DHT22;11018;51.258;6.806;2023-04-15T13:09:01;12.00;36.70
4354;DHT22;11018;51.258;6.806;2023-04-15T13:11:27;12.10;36.60
4354;DHT22;11018;51.258;6.806;2023-04-15T13:14:02;12.00;36.60
4354;DHT22;11018;51.258;6.806;2023-04-15T13:16:27;11.90;37.00
4354;DHT22;11018;51.258;6.806;2023-04-15T13:18:53;11.80;37.30
4354;DHT22;11018;51.258;6.806;2023-04-15T13:21:19;11.90;37.70
4354;DHT22;11018;51.258;6.806;2023-04-15T13:23:45;12.00;37.10
4354;DHT22;11018;51.258;6.806;2023-04-15T13:26:10;12.10;36.80
4354;DHT22;11018;51.258;6.806;2023-04-15T13:28:36;12.10;36.00
4354;DHT22;11018;51.258;6.806;2023-04-15T13:31:02;12.20;35.90
4354;DHT22;11018;51.258;6.806;2023-04-15T13:33:28;12.30;34.20
4354;DHT22;11018;51.258;6.806;2023-04-15T13:35:53;12.30;32.80
4354;DHT22;11018;51.258;6.806;2023-04-15T13:38:19;12.20;32.90
4354;DHT22;11018;51.258;6.806;2023-04-15T13:40:44;12.20;33.60
4354;DHT22;11018;51.258;6.806;2023-04-15T13:43:10;12.20;34.40
4354;DHT22;11018;51.258;6.806;2023-04-15T13:45:36;11.90;36.10
4354;DHT22;11018;51.258;6.806;2023-04-15T13:48:02;11.70;37.40
4354;DHT22;11018;51.258;6.806;2023-04-15T13:50:28;11.70;37.40
4354;DHT22;11018;51.258;6.806;2023-04-15T13:52:53;11.60;37.50
4354;DHT22;11018;51.258;6.806;2023-04-15T13:55:19;11.70;37.50
4354;DHT22;11018;51.258;6.806;2023-04-15T13:57:45;11.80;37.10
4354;DHT22;11018;51.258;6.806;2023-04-15T14:00:11;12.10;35.90
4354;DHT22;11018;51.258;6.806;2023-04-15T14:02:37;12.30;34.70
4354;DHT22;11018;51.258;6.806;2023-04-15T14:05:02;12.40;33.60
4354;DHT22;11018;51.258;6.806;2023-04-15T14:07:29;12.40;33.30
4354;DHT22;11018;51.258;6.806;2023-04-15T14:09:55;12.30;34.00
4354;DHT22;11018;51.258;6.806;2023-04-15T14:12:21;12.40;34.40
4354;DHT22;11018;51.258;6.806;2023-04-15T14:14:46;12.20;34.90
4354;DHT22;11018;51.258;6.806;2023-04-15T14:17:12;12.10;35.50
4354;DHT22;11018;51.258;6.806;2023-04-15T14:19:38;12.10;35.60
4354;DHT22;11018;51.258;6.806;2023-04-15T14:22:03;12.00;35.60
4354;DHT22;11018;51.258;6.806;2023-04-15T14:24:29;12.00;35.90
4354;DHT22;11018;51.258;6.806;2023-04-15T14:26:55;12.10;35.90
4354;DHT22;11018;51.258;6.806;2023-04-15T14:29:21;12.10;34.50
4354;DHT22;11018;51.258;6.806;2023-04-15T14:31:47;12.10;35.00
4354;DHT22;11018;51.258;6.806;2023-04-15T14:34:14;12.30;34.20
4354;DHT22;11018;51.258;6.806;2023-04-15T14:36:40;12.30;33.50
4354;DHT22;11018;51.258;6.806;2023-04-15T14:39:06;12.30;34.60
4354;DHT22;11018;51.258;6.806;2023-04-15T14:41:32;12.30;34.30
4354;DHT22;11018;51.258;6.806;2023-04-15T14:43:58;12.10;35.20
4354;DHT22;11018;51.258;6.806;2023-04-15T14:46:24;12.00;36.70
4354;DHT22;11018;51.258;6.806;2023-04-15T14:48:50;12.00;37.20
4354;DHT22;11018;51.258;6.806;2023-04-15T14:51:16;12.00;36.80
4354;DHT22;11018;51.258;6.806;2023-04-15T14:53:42;12.00;37.90
4354;DHT22;11018;51.258;6.806;2023-04-15T14:56:08;12.10;38.80
4354;DHT22;11018;51.258;6.806;2023-04-15T14:58:34;12.20;37.50
4354;DHT22;11018;51.258;6.806;2023-04-15T15:01:00;12.10;37.60
4354;DHT22;11018;51.258;6.806;2023-04-15T15:03:27;12.10;38.70
4354;DHT22;11018;51.258;6.806;2023-04-15T15:05:52;12.10;38.30
4354;DHT22;11018;51.258;6.806;2023-04-15T15:08:18;12.00;38.30
4354;DHT22;11018;51.258;6.806;2023-04-15T15:10:43;12.00;39.30
4354;DHT22;11018;51.258;6.806;2023-04-15T15:13:10;12.00;39.30
4354;DHT22;11018;51.258;6.806;2023-04-15T15:15:36;11.90;40.40
4354;DHT22;11018;51.258;6.806;2023-04-15T15:18:02;12.00;41.20
4354;DHT22;11018;51.258;6.806;2023-04-15T15:20:28;12.00;40.00
4354;DHT22;11018;51.258;6.806;2023-04-15T15:22:55;11.90;40.90
4354;DHT22;11018;51.258;6.806;2023-04-15T15:25:20;11.70;43.20
4354;DHT22;11018;51.258;6.806;2023-04-15T15:27:46;11.70;44.10
4354;DHT22;11018;51.258;6.806;2023-04-15T15:30:12;11.80;46.00
4354;DHT22;11018;51.258;6.806;2023-04-15T15:32:39;11.80;46.10
4354;DHT22;11018;51.258;6.806;2023-04-15T15:35:05;11.80;47.30
4354;DHT22;11018;51.258;6.806;2023-04-15T15:37:31;11.60;49.30
4354;DHT22;11018;51.258;6.806;2023-04-15T15:39:57;11.50;52.90
4354;DHT22;11018;51.258;6.806;2023-04-15T15:42:22;11.30;53.10
4354;DHT22;11018;51.258;6.806;2023-04-15T15:44:49;11.30;53.10
4354;DHT22;11018;51.258;6.806;2023-04-15T15:47:17;11.40;52.80
4354;DHT22;11018;51.258;6.806;2023-04-15T15:49:43;11.30;52.80
4354;DHT22;11018;51.258;6.806;2023-04-15T15:52:08;11.30;55.60
4354;DHT22;11018;51.258;6.806;2023-04-15T15:54:34;11.30;54.70
4354;DHT22;11018;51.258;6.806;2023-04-15T15:57:01;11.20;54.80